sensor_id;sensor_type;location;lat;lon;timestamp;P1;durP1;ratioP1;P2;durP2;ratioP2
10657;SDS011;5377;43.276;26.930;2024-01-10T00:00:18;1.20;;;0.80;;
10657;SDS011;5377;43.276;26.930;2024-01-10T00:02:45;1.93;;;0.90;;
10657;SDS011;5377;43.276;26.930;2024-01-10T00:05:11;2.70;;;0.80;;
10657;SDS011;5377;43.276;26.930;2024-01-10T00:07:38;3.03;;;1.37;;
10657;SDS011;5377;43.276;26.930;2024-01-10T00:10:05;2.30;;;1.17;;
10657;SDS011;5377;43.276;26.930;2024-01-10T00:12:31;2.30;;;1.07;;
10657;SDS011;5377;43.276;26.930;2024-01-10T00:15:03;0.90;;;0.90;;
10657;SDS011;5377;43.276;26.930;2024-01-10T00:17:30;1.17;;;0.83;;
10657;SDS011;5377;43.276;26.930;2024-01-10T00:19:56;1.30;;;1.20;;
10657;SDS011;5377;43.276;26.930;2024-01-10T00:22:23;1.63;;;0.80;;
10657;SDS011;5377;43.276;26.930;2024-01-10T00:24:49;0.87;;;0.83;;
10657;SDS011;5377;43.276;26.930;2024-01-10T00:27:16;3.70;;;0.80;;
10657;SDS011;5377;43.276;26.930;2024-01-10T00:29:42;1.00;;;0.67;;
10657;SDS011;5377;43.276;26.930;2024-01-10T00:32:10;1.13;;;0.93;;
10657;SDS011;5377;43.276;26.930;2024-01-10T00:34:37;1.33;;;0.97;;
10657;SDS011;5377;43.276;26.930;2024-01-10T00:37:03;2.03;;;1.50;;
10657;SDS011;5377;43.276;26.930;2024-01-10T00:39:30;3.50;;;0.97;;
10657;SDS011;5377;43.276;26.930;2024-01-10T00:41:56;2.10;;;1.03;;
10657;SDS011;5377;43.276;26.930;2024-01-10T00:44:23;2.97;;;0.77;;
10657;SDS011;5377;43.276;26.930;2024-01-10T00:46:49;4.40;;;1.27;;
10657;SDS011;5377;43.276;26.930;2024-01-10T00:49:17;1.90;;;0.93;;
10657;SDS011;5377;43.276;26.930;2024-01-10T00:51:43;1.87;;;1.53;;
10657;SDS011;5377;43.276;26.930;2024-01-10T00:54:10;2.03;;;1.07;;
10657;SDS011;5377;43.276;26.930;2024-01-10T00:56:36;3.70;;;1.20;;
10657;SDS011;5377;43.276;26.930;2024-01-10T00:59:03;1.27;;;1.10;;
10657;SDS011;5377;43.276;26.930;2024-01-10T01:01:29;2.03;;;0.97;;
10657;SDS011;5377;43.276;26.930;2024-01-10T01:03:56;1.70;;;1.07;;
10657;SDS011;5377;43.276;26.930;2024-01-10T01:06:24;4.03;;;1.73;;
10657;SDS011;5377;43.276;26.930;2024-01-10T01:08:50;3.03;;;1.30;;
10657;SDS011;5377;43.276;26.930;2024-01-10T01:11:17;3.57;;;0.77;;
10657;SDS011;5377;43.276;26.930;2024-01-10T01:13:43;3.83;;;1.10;;
10657;SDS011;5377;43.276;26.930;2024-01-10T01:16:10;2.50;;;1.27;;
10657;SDS011;5377;43.276;26.930;2024-01-10T01:18:36;3.00;;;1.10;;
10657;SDS011;5377;43.276;26.930;2024-01-10T01:21:03;2.47;;;1.20;;
10657;SDS011;5377;43.276;26.930;2024-01-10T01:23:31;2.57;;;1.03;;
10657;SDS011;5377;43.276;26.930;2024-01-10T01:25:57;1.17;;;0.90;;
10657;SDS011;5377;43.276;26.930;2024-01-10T01:28:25;2.67;;;1.17;;
10657;SDS011;5377;43.276;26.930;2024-01-10T01:30:51;0.93;;;0.57;;
10657;SDS011;5377;43.276;26.930;2024-01-10T01:33:18;1.10;;;0.83;;
10657;SDS011;5377;43.276;26.930;2024-01-10T01:35:44;2.00;;;0.70;;
10657;SDS011;5377;43.276;26.930;2024-01-10T01:38:11;1.97;;;0.57;;
10657;SDS011;5377;43.276;26.930;2024-01-10T01:40:39;0.90;;;0.70;;
10657;SDS011;5377;43.276;26.930;2024-01-10T01:43:17;2.73;;;1.00;;
10657;SDS011;5377;43.276;26.930;2024-01-10T01:45:44;1.50;;;0.80;;
10657;SDS011;5377;43.276;26.930;2024-01-10T01:48:10;1.20;;;0.57;;
10657;SDS011;5377;43.276;26.930;2024-01-10T01:50:37;1.60;;;0.93;;
10657;SDS011;5377;43.276;26.930;2024-01-10T01:53:03;0.57;;;0.50;;
10657;SDS011;5377;43.276;26.930;2024-01-10T01:55:30;3.93;;;1.13;;
10657;SDS011;5377;43.276;26.930;2024-01-10T01:57:58;2.10;;;0.87;;
10657;SDS011;5377;43.276;26.930;2024-01-10T02:00:24;1.20;;;0.80;;
10657;SDS011;5377;43.276;26.930;2024-01-10T02:02:51;1.13;;;1.03;;
10657;SDS011;5377;43.276;26.930;2024-01-10T02:05:18;1.70;;;0.73;;
10657;SDS011;5377;43.276;26.930;2024-01-10T02:07:44;1.90;;;1.00;;
10657;SDS011;5377;43.276;26.930;2024-01-10T02:10:11;1.20;;;0.50;;
10657;SDS011;5377;43.276;26.930;2024-01-10T02:12:38;1.33;;;0.60;;
10657;SDS011;5377;43.276;26.930;2024-01-10T02:15:06;0.93;;;0.60;;
10657;SDS011;5377;43.276;26.930;2024-01-10T02:17:33;0.67;;;0.60;;
10657;SDS011;5377;43.276;26.930;2024-01-10T02:20:08;3.50;;;1.10;;
10657;SDS011;5377;43.276;26.930;2024-01-10T02:22:35;1.13;;;0.73;;
10657;SDS011;5377;43.276;26.930;2024-01-10T02:25:03;3.70;;;0.73;;
10657;SDS011;5377;43.276;26.930;2024-01-10T02:27:30;1.23;;;0.73;;
10657;SDS011;5377;43.276;26.930;2024-01-10T02:29:56;2.27;;;1.00;;
10657;SDS011;5377;43.276;26.930;2024-01-10T02:32:24;1.07;;;0.60;;
10657;SDS011;5377;43.276;26.930;2024-01-10T02:34:50;1.40;;;0.50;;
10657;SDS011;5377;43.276;26.930;2024-01-10T02:37:17;1.83;;;0.70;;
10657;SDS011;5377;43.276;26.930;2024-01-10T02:39:43;1.40;;;0.77;;
10657;SDS011;5377;43.276;26.930;2024-01-10T02:42:11;1.13;;;0.50;;
10657;SDS011;5377;43.276;26.930;2024-01-10T02:44:38;0.60;;;0.60;;
10657;SDS011;5377;43.276;26.930;2024-01-10T02:47:04;0.73;;;0.40;;
10657;SDS011;5377;43.276;26.930;2024-01-10T02:49:31;0.47;;;0.40;;
10657;SDS011;5377;43.276;26.930;2024-01-10T02:51:58;0.90;;;0.67;;
10657;SDS011;5377;43.276;26.930;2024-01-10T02:54:24;1.13;;;0.40;;
10657;SDS011;5377;43.276;26.930;2024-01-10T02:56:51;0.77;;;0.27;;
10657;SDS011;5377;43.276;26.930;2024-01-10T02:59:19;0.70;;;0.20;;
10657;SDS011;5377;43.276;26.930;2024-01-10T03:01:45;2.43;;;0.70;;
10657;SDS011;5377;43.276;26.930;2024-01-10T03:04:12;1.27;;;0.57;;
10657;SDS011;5377;43.276;26.930;2024-01-10T03:06:38;0.30;;;0.30;;
10657;SDS011;5377;43.276;26.930;2024-01-10T03:09:05;1.63;;;0.83;;
10657;SDS011;5377;43.276;26.930;2024-01-10T03:11:32;1.33;;;0.60;;
10657;SDS011;5377;43.276;26.930;2024-01-10T03:14:01;0.60;;;0.37;;
10657;SDS011;5377;43.276;26.930;2024-01-10T03:16:30;0.50;;;0.50;;
10657;SDS011;5377;43.276;26.930;2024-01-10T03:18:56;2.93;;;0.63;;
10657;SDS011;5377;43.276;26.930;2024-01-10T03:21:23;3.03;;;0.30;;
10657;SDS011;5377;43.276;26.930;2024-01-10T03:23:50;0.73;;;0.40;;
10657;SDS011;5377;43.276;26.930;2024-01-10T03:26:16;1.00;;;0.43;;
10657;SDS011;5377;43.276;26.930;2024-01-10T03:28:43;1.27;;;0.50;;
10657;SDS011;5377;43.276;26.930;2024-01-10T03:31:10;1.20;;;0.53;;
10657;SDS011;5377;43.276;26.930;2024-01-10T03:33:38;0.60;;;0.37;;
10657;SDS011;5377;43.276;26.930;2024-01-10T03:36:05;0.57;;;0.43;;
10657;SDS011;5377;43.276;26.930;2024-01-10T03:38:32;0.73;;;0.50;;
10657;SDS011;5377;43.276;26.930;2024-01-10T03:40:59;0.63;;;0.40;;
10657;SDS011;5377;43.276;26.930;2024-01-10T03:43:25;2.10;;;0.87;;
10657;SDS011;5377;43.276;26.930;2024-01-10T03:45:51;2.50;;;0.60;;
10657;SDS011;5377;43.276;26.930;2024-01-10T03:48:18;1.00;;;0.70;;
10657;SDS011;5377;43.276;26.930;2024-01-10T03:50:46;0.30;;;0.30;;
10657;SDS011;5377;43.276;26.930;2024-01-10T03:53:13;3.33;;;0.67;;
10657;SDS011;5377;43.276;26.930;2024-01-10T03:55:39;1.27;;;0.50;;
10657;SDS011;5377;43.276;26.930;2024-01-10T03:58:06;0.90;;;0.53;;
10657;SDS011;5377;43.276;26.930;2024-01-10T04:00:32;4.60;;;0.53;;
10657;SDS011;5377;43.276;26.930;2024-01-10T04:02:59;1.37;;;1.00;;
10657;SDS011;5377;43.276;26.930;2024-01-10T04:05:25;2.03;;;0.90;;
10657;SDS011;5377;43.276;26.930;2024-01-10T04:07:53;0.97;;;0.87;;
10657;SDS011;5377;43.276;26.930;2024-01-10T04:10:22;2.77;;;1.00;;
10657;SDS011;5377;43.276;26.930;2024-01-10T04:12:49;3.37;;;1.53;;
10657;SDS011;5377;43.276;26.930;2024-01-10T04:15:16;1.30;;;0.70;;
10657;SDS011;5377;43.276;26.930;2024-01-10T04:17:43;1.47;;;0.97;;
10657;SDS011;5377;43.276;26.930;2024-01-10T04:20:09;3.30;;;1.23;;
10657;SDS011;5377;43.276;26.930;2024-01-10T04:22:36;3.23;;;1.50;;
10657;SDS011;5377;43.276;26.930;2024-01-10T04:25:04;1.73;;;1.23;;
10657;SDS011;5377;43.276;26.930;2024-01-10T04:27:31;1.97;;;0.80;;
10657;SDS011;5377;43.276;26.930;2024-01-10T04:29:58;2.60;;;1.40;;
10657;SDS011;5377;43.276;26.930;2024-01-10T04:32:24;2.53;;;1.43;;
10657;SDS011;5377;43.276;26.930;2024-01-10T04:34:51;5.13;;;1.67;;
10657;SDS011;5377;43.276;26.930;2024-01-10T04:37:17;1.83;;;1.70;;
10657;SDS011;5377;43.276;26.930;2024-01-10T04:39:44;1.03;;;0.80;;
10657;SDS011;5377;43.276;26.930;2024-01-10T04:42:12;4.13;;;1.50;;
10657;SDS011;5377;43.276;26.930;2024-01-10T04:44:38;2.93;;;1.37;;
10657;SDS011;5377;43.276;26.930;2024-01-10T04:47:05;4.53;;;1.57;;
10657;SDS011;5377;43.276;26.930;2024-01-10T04:49:32;1.40;;;0.80;;
10657;SDS011;5377;43.276;26.930;2024-01-10T04:51:59;10.73;;;4.10;;
10657;SDS011;5377;43.276;26.930;2024-01-10T04:54:26;3.63;;;1.10;;
10657;SDS011;5377;43.276;26.930;2024-01-10T04:56:52;4.80;;;1.87;;
10657;SDS011;5377;43.276;26.930;2024-01-10T04:59:20;3.63;;;1.60;;
10657;SDS011;5377;43.276;26.930;2024-01-10T05:01:46;8.63;;;2.70;;
10657;SDS011;5377;43.276;26.930;2024-01-10T05:04:13;2.17;;;1.43;;
10657;SDS011;5377;43.276;26.930;2024-01-10T05:06:39;2.70;;;1.73;;
10657;SDS011;5377;43.276;26.930;2024-01-10T05:09:06;8.67;;;1.57;;
10657;SDS011;5377;43.276;26.930;2024-01-10T05:11:32;4.73;;;2.43;;
10657;SDS011;5377;43.276;26.930;2024-01-10T05:14:00;7.30;;;3.67;;
10657;SDS011;5377;43.276;26.930;2024-01-10T05:16:29;4.53;;;2.67;;
10657;SDS011;5377;43.276;26.930;2024-01-10T05:18:56;2.37;;;1.90;;
10657;SDS011;5377;43.276;26.930;2024-01-10T05:21:23;5.53;;;2.90;;
10657;SDS011;5377;43.276;26.930;2024-01-10T05:23:49;5.63;;;4.03;;
10657;SDS011;5377;43.276;26.930;2024-01-10T05:26:16;4.10;;;2.70;;
10657;SDS011;5377;43.276;26.930;2024-01-10T05:28:42;5.60;;;3.00;;
10657;SDS011;5377;43.276;26.930;2024-01-10T05:31:09;6.00;;;3.07;;
10657;SDS011;5377;43.276;26.930;2024-01-10T05:33:37;5.40;;;2.33;;
10657;SDS011;5377;43.276;26.930;2024-01-10T05:36:03;7.13;;;3.33;;
10657;SDS011;5377;43.276;26.930;2024-01-10T05:38:30;6.33;;;2.07;;
10657;SDS011;5377;43.276;26.930;2024-01-10T05:40:56;7.40;;;2.80;;
10657;SDS011;5377;43.276;26.930;2024-01-10T05:43:23;3.43;;;2.37;;
10657;SDS011;5377;43.276;26.930;2024-01-10T05:45:49;6.20;;;3.03;;
10657;SDS011;5377;43.276;26.930;2024-01-10T05:48:16;5.67;;;3.20;;
10657;SDS011;5377;43.276;26.930;2024-01-10T05:50:44;4.03;;;2.27;;
10657;SDS011;5377;43.276;26.930;2024-01-10T05:53:10;1.63;;;0.93;;
10657;SDS011;5377;43.276;26.930;2024-01-10T05:55:39;7.93;;;2.53;;
10657;SDS011;5377;43.276;26.930;2024-01-10T05:58:05;3.07;;;1.87;;
10657;SDS011;5377;43.276;26.930;2024-01-10T06:00:34;4.10;;;2.67;;
10657;SDS011;5377;43.276;26.930;2024-01-10T06:03:01;6.17;;;3.23;;
10657;SDS011;5377;43.276;26.930;2024-01-10T06:05:27;3.97;;;2.63;;
10657;SDS011;5377;43.276;26.930;2024-01-10T06:07:55;4.67;;;1.33;;
10657;SDS011;5377;43.276;26.930;2024-01-10T06:10:22;5.87;;;1.57;;
10657;SDS011;5377;43.276;26.930;2024-01-10T06:12:48;4.97;;;2.07;;
10657;SDS011;5377;43.276;26.930;2024-01-10T06:15:15;0.90;;;0.90;;
10657;SDS011;5377;43.276;26.930;2024-01-10T06:17:42;6.40;;;2.13;;
10657;SDS011;5377;43.276;26.930;2024-01-10T06:20:09;1.80;;;1.07;;
10657;SDS011;5377;43.276;26.930;2024-01-10T06:22:35;3.90;;;1.93;;
10657;SDS011;5377;43.276;26.930;2024-01-10T06:25:03;3.40;;;2.23;;
10657;SDS011;5377;43.276;26.930;2024-01-10T06:27:30;4.53;;;2.57;;
10657;SDS011;5377;43.276;26.930;2024-01-10T06:29:57;6.77;;;3.23;;
10657;SDS011;5377;43.276;26.930;2024-01-10T06:32:23;4.83;;;2.93;;
10657;SDS011;5377;43.276;26.930;2024-01-10T06:34:50;5.13;;;2.57;;
10657;SDS011;5377;43.276;26.930;2024-01-10T06:37:18;1.63;;;1.53;;
10657;SDS011;5377;43.276;26.930;2024-01-10T06:39:44;3.87;;;1.33;;
10657;SDS011;5377;43.276;26.930;2024-01-10T06:42:12;6.93;;;3.20;;
10657;SDS011;5377;43.276;26.930;2024-01-10T06:44:39;5.73;;;3.33;;
10657;SDS011;5377;43.276;26.930;2024-01-10T06:47:05;5.03;;;3.10;;
10657;SDS011;5377;43.276;26.930;2024-01-10T06:49:32;5.73;;;3.63;;
10657;SDS011;5377;43.276;26.930;2024-01-10T06:51:59;6.70;;;3.37;;
10657;SDS011;5377;43.276;26.930;2024-01-10T06:54:28;3.37;;;2.10;;
10657;SDS011;5377;43.276;26.930;2024-01-10T06:56:54;3.00;;;1.90;;
10657;SDS011;5377;43.276;26.930;2024-01-10T06:59:22;2.80;;;1.70;;
10657;SDS011;5377;43.276;26.930;2024-01-10T07:01:51;3.63;;;2.63;;
10657;SDS011;5377;43.276;26.930;2024-01-10T07:04:17;4.00;;;2.10;;
10657;SDS011;5377;43.276;26.930;2024-01-10T07:06:47;4.67;;;2.10;;
10657;SDS011;5377;43.276;26.930;2024-01-10T07:09:13;3.50;;;1.77;;
10657;SDS011;5377;43.276;26.930;2024-01-10T07:11:44;1.97;;;1.67;;
10657;SDS011;5377;43.276;26.930;2024-01-10T07:14:11;4.93;;;3.37;;
10657;SDS011;5377;43.276;26.930;2024-01-10T07:16:40;5.67;;;2.60;;
10657;SDS011;5377;43.276;26.930;2024-01-10T07:19:07;1.90;;;1.67;;
10657;SDS011;5377;43.276;26.930;2024-01-10T07:21:34;3.63;;;2.83;;
10657;SDS011;5377;43.276;26.930;2024-01-10T07:24:00;5.33;;;3.13;;
10657;SDS011;5377;43.276;26.930;2024-01-10T07:26:27;3.60;;;1.87;;
10657;SDS011;5377;43.276;26.930;2024-01-10T07:28:53;8.63;;;4.00;;
10657;SDS011;5377;43.276;26.930;2024-01-10T07:31:20;7.57;;;3.77;;
10657;SDS011;5377;43.276;26.930;2024-01-10T07:33:48;2.73;;;2.33;;
10657;SDS011;5377;43.276;26.930;2024-01-10T07:36:14;3.73;;;2.70;;
10657;SDS011;5377;43.276;26.930;2024-01-10T07:38:41;5.07;;;2.60;;
10657;SDS011;5377;43.276;26.930;2024-01-10T07:41:07;7.70;;;4.00;;
10657;SDS011;5377;43.276;26.930;2024-01-10T07:43:36;5.60;;;3.33;;
10657;SDS011;5377;43.276;26.930;2024-01-10T07:46:03;7.20;;;4.00;;
10657;SDS011;5377;43.276;26.930;2024-01-10T07:48:30;4.43;;;2.67;;
10657;SDS011;5377;43.276;26.930;2024-01-10T07:50:57;7.77;;;5.30;;
10657;SDS011;5377;43.276;26.930;2024-01-10T07:53:24;4.73;;;2.80;;
10657;SDS011;5377;43.276;26.930;2024-01-10T07:55:52;4.67;;;3.27;;
10657;SDS011;5377;43.276;26.930;2024-01-10T07:58:18;6.00;;;2.83;;
10657;SDS011;5377;43.276;26.930;2024-01-10T08:00:44;4.50;;;2.93;;
10657;SDS011;5377;43.276;26.930;2024-01-10T08:03:11;5.93;;;3.40;;
10657;SDS011;5377;43.276;26.930;2024-01-10T08:05:38;5.17;;;3.37;;
10657;SDS011;5377;43.276;26.930;2024-01-10T08:08:06;6.83;;;5.40;;
10657;SDS011;5377;43.276;26.930;2024-01-10T08:10:33;5.37;;;2.97;;
10657;SDS011;5377;43.276;26.930;2024-01-10T08:12:59;8.20;;;4.43;;
10657;SDS011;5377;43.276;26.930;2024-01-10T08:15:26;5.87;;;3.20;;
10657;SDS011;5377;43.276;26.930;2024-01-10T08:17:55;5.50;;;4.50;;
10657;SDS011;5377;43.276;26.930;2024-01-10T08:20:22;4.40;;;3.17;;
10657;SDS011;5377;43.276;26.930;2024-01-10T08:22:48;5.53;;;4.57;;
10657;SDS011;5377;43.276;26.930;2024-01-10T08:25:16;6.33;;;4.90;;
10657;SDS011;5377;43.276;26.930;2024-01-10T08:27:44;5.80;;;4.27;;
10657;SDS011;5377;43.276;26.930;2024-01-10T08:30:10;3.43;;;2.40;;
10657;SDS011;5377;43.276;26.930;2024-01-10T08:32:37;6.53;;;3.73;;
10657;SDS011;5377;43.276;26.930;2024-01-10T08:35:04;5.83;;;3.60;;
10657;SDS011;5377;43.276;26.930;2024-01-10T08:37:30;6.90;;;4.63;;
10657;SDS011;5377;43.276;26.930;2024-01-10T08:39:58;5.80;;;3.87;;
10657;SDS011;5377;43.276;26.930;2024-01-10T08:42:27;8.97;;;5.23;;
10657;SDS011;5377;43.276;26.930;2024-01-10T08:44:53;9.07;;;5.13;;
10657;SDS011;5377;43.276;26.930;2024-01-10T08:47:21;5.67;;;3.37;;
10657;SDS011;5377;43.276;26.930;2024-01-10T08:49:47;7.10;;;3.97;;
10657;SDS011;5377;43.276;26.930;2024-01-10T08:52:14;7.77;;;2.83;;
10657;SDS011;5377;43.276;26.930;2024-01-10T08:54:41;6.83;;;3.60;;
10657;SDS011;5377;43.276;26.930;2024-01-10T08:57:07;7.70;;;4.90;;
10657;SDS011;5377;43.276;26.930;2024-01-10T08:59:35;11.80;;;5.83;;
10657;SDS011;5377;43.276;26.930;2024-01-10T09:02:02;8.37;;;5.67;;
10657;SDS011;5377;43.276;26.930;2024-01-10T09:04:28;7.43;;;4.67;;
10657;SDS011;5377;43.276;26.930;2024-01-10T09:06:55;6.67;;;4.37;;
10657;SDS011;5377;43.276;26.930;2024-01-10T09:09:21;9.47;;;6.07;;
10657;SDS011;5377;43.276;26.930;2024-01-10T09:11:48;12.47;;;7.17;;
10657;SDS011;5377;43.276;26.930;2024-01-10T09:14:14;10.23;;;5.90;;
10657;SDS011;5377;43.276;26.930;2024-01-10T09:16:42;7.47;;;4.83;;
10657;SDS011;5377;43.276;26.930;2024-01-10T09:19:09;10.03;;;5.50;;
10657;SDS011;5377;43.276;26.930;2024-01-10T09:21:36;8.67;;;5.90;;
10657;SDS011;5377;43.276;26.930;2024-01-10T09:24:02;7.53;;;5.57;;
10657;SDS011;5377;43.276;26.930;2024-01-10T09:26:30;5.07;;;3.40;;
10657;SDS011;5377;43.276;26.930;2024-01-10T09:28:57;7.50;;;5.13;;
10657;SDS011;5377;43.276;26.930;2024-01-10T09:31:24;6.53;;;4.90;;
10657;SDS011;5377;43.276;26.930;2024-01-10T09:33:52;8.20;;;5.37;;
10657;SDS011;5377;43.276;26.930;2024-01-10T09:36:18;11.03;;;6.63;;
10657;SDS011;5377;43.276;26.930;2024-01-10T09:38:44;11.00;;;6.60;;
10657;SDS011;5377;43.276;26.930;2024-01-10T09:41:11;10.43;;;5.37;;
10657;SDS011;5377;43.276;26.930;2024-01-10T09:43:38;6.90;;;5.57;;
10657;SDS011;5377;43.276;26.930;2024-01-10T09:46:04;8.73;;;5.10;;
10657;SDS011;5377;43.276;26.930;2024-01-10T09:48:32;9.33;;;6.40;;
10657;SDS011;5377;43.276;26.930;2024-01-10T09:51:00;6.97;;;4.60;;
10657;SDS011;5377;43.276;26.930;2024-01-10T09:53:27;8.67;;;5.97;;
10657;SDS011;5377;43.276;26.930;2024-01-10T09:55:55;8.33;;;5.50;;
10657;SDS011;5377;43.276;26.930;2024-01-10T09:58:22;8.40;;;5.03;;
10657;SDS011;5377;43.276;26.930;2024-01-10T10:00:49;8.70;;;3.80;;
10657;SDS011;5377;43.276;26.930;2024-01-10T10:03:15;6.87;;;4.80;;
10657;SDS011;5377;43.276;26.930;2024-01-10T10:05:43;12.43;;;6.87;;
10657;SDS011;5377;43.276;26.930;2024-01-10T10:08:11;6.83;;;4.87;;
10657;SDS011;5377;43.276;26.930;2024-01-10T10:10:39;5.30;;;3.50;;
10657;SDS011;5377;43.276;26.930;2024-01-10T10:13:09;7.57;;;4.97;;
10657;SDS011;5377;43.276;26.930;2024-01-10T10:15:37;7.33;;;4.23;;
10657;SDS011;5377;43.276;26.930;2024-01-10T10:18:03;6.70;;;4.20;;
10657;SDS011;5377;43.276;26.930;2024-01-10T10:20:30;7.60;;;5.17;;
10657;SDS011;5377;43.276;26.930;2024-01-10T10:22:59;9.73;;;6.93;;
10657;SDS011;5377;43.276;26.930;2024-01-10T10:25:27;5.77;;;4.13;;
10657;SDS011;5377;43.276;26.930;2024-01-10T10:27:55;10.53;;;6.77;;
10657;SDS011;5377;43.276;26.930;2024-01-10T10:30:21;11.67;;;6.83;;
10657;SDS011;5377;43.276;26.930;2024-01-10T10:32:48;11.57;;;6.13;;
10657;SDS011;5377;43.276;26.930;2024-01-10T10:35:17;14.53;;;5.17;;
10657;SDS011;5377;43.276;26.930;2024-01-10T10:37:44;6.97;;;5.97;;
10657;SDS011;5377;43.276;26.930;2024-01-10T10:40:11;10.03;;;6.50;;
10657;SDS011;5377;43.276;26.930;2024-01-10T10:42:40;6.30;;;4.30;;
10657;SDS011;5377;43.276;26.930;2024-01-10T10:45:10;5.57;;;4.57;;
10657;SDS011;5377;43.276;26.930;2024-01-10T10:47:38;8.33;;;4.97;;
10657;SDS011;5377;43.276;26.930;2024-01-10T10:50:08;8.43;;;5.00;;
10657;SDS011;5377;43.276;26.930;2024-01-10T10:52:38;10.13;;;6.77;;
10657;SDS011;5377;43.276;26.930;2024-01-10T10:55:06;4.97;;;4.47;;
10657;SDS011;5377;43.276;26.930;2024-01-10T10:57:33;8.50;;;6.10;;
10657;SDS011;5377;43.276;26.930;2024-01-10T11:00:02;9.57;;;7.73;;
10657;SDS011;5377;43.276;26.930;2024-01-10T11:02:28;9.27;;;6.90;;
10657;SDS011;5377;43.276;26.930;2024-01-10T11:04:55;6.10;;;3.47;;
10657;SDS011;5377;43.276;26.930;2024-01-10T11:07:21;8.83;;;5.60;;
10657;SDS011;5377;43.276;26.930;2024-01-10T11:09:48;11.30;;;5.90;;
10657;SDS011;5377;43.276;26.930;2024-01-10T11:12:19;9.93;;;6.40;;
10657;SDS011;5377;43.276;26.930;2024-01-10T11:14:54;8.07;;;5.50;;
10657;SDS011;5377;43.276;26.930;2024-01-10T11:17:29;7.47;;;5.13;;
10657;SDS011;5377;43.276;26.930;2024-01-10T11:20:04;5.73;;;3.83;;
10657;SDS011;5377;43.276;26.930;2024-01-10T11:22:42;4.23;;;3.47;;
10657;SDS011;5377;43.276;26.930;2024-01-10T11:25:09;8.33;;;5.17;;
10657;SDS011;5377;43.276;26.930;2024-01-10T11:27:36;7.97;;;5.83;;
10657;SDS011;5377;43.276;26.930;2024-01-10T11:30:03;8.90;;;5.23;;
10657;SDS011;5377;43.276;26.930;2024-01-10T11:32:32;6.13;;;3.33;;
10657;SDS011;5377;43.276;26.930;2024-01-10T11:35:00;8.40;;;5.03;;
10657;SDS011;5377;43.276;26.930;2024-01-10T11:37:37;9.30;;;5.87;;
10657;SDS011;5377;43.276;26.930;2024-01-10T11:40:06;9.53;;;5.73;;
10657;SDS011;5377;43.276;26.930;2024-01-10T11:42:40;12.03;;;4.43;;
10657;SDS011;5377;43.276;26.930;2024-01-10T11:45:07;8.83;;;5.10;;
10657;SDS011;5377;43.276;26.930;2024-01-10T11:47:35;9.33;;;4.80;;
10657;SDS011;5377;43.276;26.930;2024-01-10T11:50:06;8.60;;;5.47;;
10657;SDS011;5377;43.276;26.930;2024-01-10T11:52:34;13.77;;;5.07;;
10657;SDS011;5377;43.276;26.930;2024-01-10T11:55:02;7.97;;;5.93;;
10657;SDS011;5377;43.276;26.930;2024-01-10T11:57:30;8.07;;;5.53;;
10657;SDS011;5377;43.276;26.930;2024-01-10T11:59:58;8.07;;;5.17;;
10657;SDS011;5377;43.276;26.930;2024-01-10T12:02:25;7.37;;;5.37;;
10657;SDS011;5377;43.276;26.930;2024-01-10T12:04:54;10.97;;;6.70;;
10657;SDS011;5377;43.276;26.930;2024-01-10T12:07:21;9.60;;;6.27;;
10657;SDS011;5377;43.276;26.930;2024-01-10T12:09:48;9.60;;;5.60;;
10657;SDS011;5377;43.276;26.930;2024-01-10T12:12:15;12.77;;;7.43;;
10657;SDS011;5377;43.276;26.930;2024-01-10T12:14:42;8.40;;;5.57;;
10657;SDS011;5377;43.276;26.930;2024-01-10T12:17:09;10.87;;;5.27;;
10657;SDS011;5377;43.276;26.930;2024-01-10T12:19:36;7.83;;;5.20;;
10657;SDS011;5377;43.276;26.930;2024-01-10T12:22:04;9.43;;;5.97;;
10657;SDS011;5377;43.276;26.930;2024-01-10T12:24:31;12.83;;;5.77;;
10657;SDS011;5377;43.276;26.930;2024-01-10T12:26:58;9.40;;;5.57;;
10657;SDS011;5377;43.276;26.930;2024-01-10T12:29:25;6.10;;;4.20;;
10657;SDS011;5377;43.276;26.930;2024-01-10T12:31:51;7.73;;;5.57;;
10657;SDS011;5377;43.276;26.930;2024-01-10T12:34:18;10.53;;;6.03;;
10657;SDS011;5377;43.276;26.930;2024-01-10T12:36:46;7.93;;;3.93;;
10657;SDS011;5377;43.276;26.930;2024-01-10T12:39:14;8.23;;;4.47;;
10657;SDS011;5377;43.276;26.930;2024-01-10T12:41:41;9.87;;;6.17;;
10657;SDS011;5377;43.276;26.930;2024-01-10T12:44:09;8.90;;;5.57;;
10657;SDS011;5377;43.276;26.930;2024-01-10T12:46:47;9.13;;;6.47;;
10657;SDS011;5377;43.276;26.930;2024-01-10T12:49:15;11.90;;;6.27;;
10657;SDS011;5377;43.276;26.930;2024-01-10T12:51:42;8.93;;;6.73;;
10657;SDS011;5377;43.276;26.930;2024-01-10T12:54:08;6.13;;;4.03;;
10657;SDS011;5377;43.276;26.930;2024-01-10T12:56:36;8.33;;;5.23;;
10657;SDS011;5377;43.276;26.930;2024-01-10T12:59:03;7.57;;;4.57;;
10657;SDS011;5377;43.276;26.930;2024-01-10T13:01:29;6.03;;;5.07;;
10657;SDS011;5377;43.276;26.930;2024-01-10T13:03:56;5.60;;;3.63;;
10657;SDS011;5377;43.276;26.930;2024-01-10T13:06:23;4.53;;;4.10;;
10657;SDS011;5377;43.276;26.930;2024-01-10T13:08:50;6.40;;;2.87;;
10657;SDS011;5377;43.276;26.930;2024-01-10T13:11:16;8.20;;;4.53;;
10657;SDS011;5377;43.276;26.930;2024-01-10T13:13:44;8.40;;;4.20;;
10657;SDS011;5377;43.276;26.930;2024-01-10T13:16:11;6.67;;;3.93;;
10657;SDS011;5377;43.276;26.930;2024-01-10T13:18:37;7.00;;;4.07;;
10657;SDS011;5377;43.276;26.930;2024-01-10T13:21:04;12.53;;;5.70;;
10657;SDS011;5377;43.276;26.930;2024-01-10T13:23:31;13.37;;;6.43;;
10657;SDS011;5377;43.276;26.930;2024-01-10T13:25:58;4.77;;;3.60;;
10657;SDS011;5377;43.276;26.930;2024-01-10T13:28:25;7.10;;;4.77;;
10657;SDS011;5377;43.276;26.930;2024-01-10T13:30:54;6.67;;;4.97;;
10657;SDS011;5377;43.276;26.930;2024-01-10T13:33:22;7.47;;;4.93;;
10657;SDS011;5377;43.276;26.930;2024-01-10T13:35:48;9.23;;;5.47;;
10657;SDS011;5377;43.276;26.930;2024-01-10T13:38:15;7.17;;;4.67;;
10657;SDS011;5377;43.276;26.930;2024-01-10T13:40:42;14.50;;;6.33;;
10657;SDS011;5377;43.276;26.930;2024-01-10T13:43:09;12.73;;;6.03;;
10657;SDS011;5377;43.276;26.930;2024-01-10T13:45:35;8.40;;;4.83;;
10657;SDS011;5377;43.276;26.930;2024-01-10T13:48:05;6.50;;;4.60;;
10657;SDS011;5377;43.276;26.930;2024-01-10T13:50:32;5.30;;;4.03;;
10657;SDS011;5377;43.276;26.930;2024-01-10T13:52:59;5.80;;;4.27;;
10657;SDS011;5377;43.276;26.930;2024-01-10T13:55:25;10.93;;;5.93;;
10657;SDS011;5377;43.276;26.930;2024-01-10T13:57:52;11.60;;;6.93;;
10657;SDS011;5377;43.276;26.930;2024-01-10T14:00:19;11.40;;;7.73;;
10657;SDS011;5377;43.276;26.930;2024-01-10T14:02:46;6.60;;;4.67;;
10657;SDS011;5377;43.276;26.930;2024-01-10T14:05:14;9.27;;;5.53;;
10657;SDS011;5377;43.276;26.930;2024-01-10T14:07:41;14.57;;;6.07;;
10657;SDS011;5377;43.276;26.930;2024-01-10T14:10:09;13.13;;;6.43;;
10657;SDS011;5377;43.276;26.930;2024-01-10T14:12:36;11.20;;;5.63;;
10657;SDS011;5377;43.276;26.930;2024-01-10T14:15:03;10.53;;;6.23;;
10657;SDS011;5377;43.276;26.930;2024-01-10T14:17:30;11.27;;;7.13;;
10657;SDS011;5377;43.276;26.930;2024-01-10T14:19:56;10.60;;;6.23;;
10657;SDS011;5377;43.276;26.930;2024-01-10T14:22:24;12.93;;;5.47;;
10657;SDS011;5377;43.276;26.930;2024-01-10T14:24:51;11.10;;;5.73;;
10657;SDS011;5377;43.276;26.930;2024-01-10T14:27:19;13.03;;;6.80;;
10657;SDS011;5377;43.276;26.930;2024-01-10T14:29:45;9.73;;;6.57;;
10657;SDS011;5377;43.276;26.930;2024-01-10T14:32:13;10.73;;;5.60;;
10657;SDS011;5377;43.276;26.930;2024-01-10T14:34:40;6.40;;;4.13;;
10657;SDS011;5377;43.276;26.930;2024-01-10T14:37:06;8.30;;;5.40;;
10657;SDS011;5377;43.276;26.930;2024-01-10T14:39:35;12.00;;;5.90;;
10657;SDS011;5377;43.276;26.930;2024-01-10T14:42:04;11.60;;;6.93;;
10657;SDS011;5377;43.276;26.930;2024-01-10T14:44:31;13.53;;;7.73;;